sensor_id;sensor_type;location;lat;lon;timestamp;P1;durP1;ratioP1;P2;durP2;ratioP2
60975;SDS011;46849;48.154;17.042;2022-12-17T00:03:18;48.65;;;27.25;;
60975;SDS011;46849;48.154;17.042;2022-12-17T00:06:21;50.28;;;27.40;;
60975;SDS011;46849;48.154;17.042;2022-12-17T00:09:24;59.35;;;29.77;;
60975;SDS011;46849;48.154;17.042;2022-12-17T00:12:35;52.38;;;28.33;;
60975;SDS011;46849;48.154;17.042;2022-12-17T00:15:38;52.92;;;27.40;;
60975;SDS011;46849;48.154;17.042;2022-12-17T00:18:41;49.97;;;27.35;;
60975;SDS011;46849;48.154;17.042;2022-12-17T00:21:44;48.33;;;25.77;;
60975;SDS011;46849;48.154;17.042;2022-12-17T00:24:48;50.00;;;27.13;;
60975;SDS011;46849;48.154;17.042;2022-12-17T00:27:51;50.60;;;26.15;;
60975;SDS011;46849;48.154;17.042;2022-12-17T00:30:55;47.45;;;26.40;;
60975;SDS011;46849;48.154;17.042;2022-12-17T00:33:58;44.80;;;26.00;;
60975;SDS011;46849;48.154;17.042;2022-12-17T00:37:01;45.33;;;25.10;;
60975;SDS011;46849;48.154;17.042;2022-12-17T00:40:04;48.47;;;25.90;;
60975;SDS011;46849;48.154;17.042;2022-12-17T00:43:09;52.78;;;27.83;;
60975;SDS011;46849;48.154;17.042;2022-12-17T00:46:14;50.28;;;26.15;;
60975;SDS011;46849;48.154;17.042;2022-12-17T00:49:17;51.67;;;26.65;;
60975;SDS011;46849;48.154;17.042;2022-12-17T00:52:20;50.80;;;26.63;;
60975;SDS011;46849;48.154;17.042;2022-12-17T00:55:23;52.38;;;27.33;;
60975;SDS011;46849;48.154;17.042;2022-12-17T00:58:27;52.05;;;27.80;;
60975;SDS011;46849;48.154;17.042;2022-12-17T01:01:30;49.15;;;25.58;;
60975;SDS011;46849;48.154;17.042;2022-12-17T01:04:34;48.53;;;26.73;;
60975;SDS011;46849;48.154;17.042;2022-12-17T01:07:51;51.00;;;27.02;;
60975;SDS011;46849;48.154;17.042;2022-12-17T01:10:57;49.05;;;26.13;;
60975;SDS011;46849;48.154;17.042;2022-12-17T01:14:02;51.58;;;26.90;;
60975;SDS011;46849;48.154;17.042;2022-12-17T01:17:05;52.03;;;27.92;;
60975;SDS011;46849;48.154;17.042;2022-12-17T01:20:08;49.58;;;27.05;;
60975;SDS011;46849;48.154;17.042;2022-12-17T01:23:13;53.25;;;29.58;;
60975;SDS011;46849;48.154;17.042;2022-12-17T01:26:19;52.75;;;27.88;;
60975;SDS011;46849;48.154;17.042;2022-12-17T01:29:22;48.15;;;25.48;;
60975;SDS011;46849;48.154;17.042;2022-12-17T01:32:25;46.80;;;25.38;;
60975;SDS011;46849;48.154;17.042;2022-12-17T01:35:29;47.13;;;25.67;;
60975;SDS011;46849;48.154;17.042;2022-12-17T01:38:32;52.67;;;28.45;;
60975;SDS011;46849;48.154;17.042;2022-12-17T01:41:36;53.05;;;27.23;;
60975;SDS011;46849;48.154;17.042;2022-12-17T01:50:59;48.67;;;24.60;;
60975;SDS011;46849;48.154;17.042;2022-12-17T01:54:04;44.95;;;26.10;;
60975;SDS011;46849;48.154;17.042;2022-12-17T01:57:08;46.63;;;25.35;;
60975;SDS011;46849;48.154;17.042;2022-12-17T02:00:13;46.67;;;26.40;;
60975;SDS011;46849;48.154;17.042;2022-12-17T02:03:19;46.70;;;24.25;;
60975;SDS011;46849;48.154;17.042;2022-12-17T02:06:26;42.85;;;23.27;;
60975;SDS011;46849;48.154;17.042;2022-12-17T02:10:08;44.97;;;24.30;;
60975;SDS011;46849;48.154;17.042;2022-12-17T02:13:32;42.42;;;23.65;;
60975;SDS011;46849;48.154;17.042;2022-12-17T02:16:41;41.60;;;23.80;;
60975;SDS011;46849;48.154;17.042;2022-12-17T02:20:06;42.85;;;23.17;;
60975;SDS011;46849;48.154;17.042;2022-12-17T02:23:24;46.20;;;23.42;;
60975;SDS011;46849;48.154;17.042;2022-12-17T02:29:49;48.17;;;25.63;;
60975;SDS011;46849;48.154;17.042;2022-12-17T02:32:57;46.72;;;25.55;;
60975;SDS011;46849;48.154;17.042;2022-12-17T02:36:04;47.47;;;25.02;;
60975;SDS011;46849;48.154;17.042;2022-12-17T02:39:10;46.92;;;25.10;;
60975;SDS011;46849;48.154;17.042;2022-12-17T02:42:13;48.17;;;26.13;;
60975;SDS011;46849;48.154;17.042;2022-12-17T02:45:19;47.03;;;25.83;;
60975;SDS011;46849;48.154;17.042;2022-12-17T02:48:23;45.42;;;24.80;;
60975;SDS011;46849;48.154;17.042;2022-12-17T02:51:27;52.30;;;26.80;;
60975;SDS011;46849;48.154;17.042;2022-12-17T02:54:31;46.28;;;24.40;;
60975;SDS011;46849;48.154;17.042;2022-12-17T02:57:35;47.60;;;25.58;;
60975;SDS011;46849;48.154;17.042;2022-12-17T03:00:39;44.08;;;24.65;;
60975;SDS011;46849;48.154;17.042;2022-12-17T03:03:42;51.47;;;27.35;;
60975;SDS011;46849;48.154;17.042;2022-12-17T03:06:45;49.58;;;25.85;;
60975;SDS011;46849;48.154;17.042;2022-12-17T03:09:49;46.17;;;25.52;;
60975;SDS011;46849;48.154;17.042;2022-12-17T03:12:58;50.50;;;27.90;;
60975;SDS011;46849;48.154;17.042;2022-12-17T03:16:11;49.92;;;27.45;;
60975;SDS011;46849;48.154;17.042;2022-12-17T03:19:19;50.25;;;27.60;;
60975;SDS011;46849;48.154;17.042;2022-12-17T03:22:22;50.25;;;27.08;;
60975;SDS011;46849;48.154;17.042;2022-12-17T03:25:25;49.40;;;27.35;;
60975;SDS011;46849;48.154;17.042;2022-12-17T03:28:29;49.10;;;26.77;;
60975;SDS011;46849;48.154;17.042;2022-12-17T03:31:32;58.08;;;30.55;;
60975;SDS011;46849;48.154;17.042;2022-12-17T03:34:36;52.95;;;29.45;;
60975;SDS011;46849;48.154;17.042;2022-12-17T03:37:39;54.92;;;29.88;;
60975;SDS011;46849;48.154;17.042;2022-12-17T03:40:42;56.58;;;29.30;;
60975;SDS011;46849;48.154;17.042;2022-12-17T03:43:51;52.08;;;27.90;;
60975;SDS011;46849;48.154;17.042;2022-12-17T03:46:54;53.72;;;28.83;;
60975;SDS011;46849;48.154;17.042;2022-12-17T03:49:57;52.40;;;26.58;;
60975;SDS011;46849;48.154;17.042;2022-12-17T03:53:02;50.65;;;27.58;;
60975;SDS011;46849;48.154;17.042;2022-12-17T03:56:06;50.33;;;26.48;;
60975;SDS011;46849;48.154;17.042;2022-12-17T03:59:16;51.05;;;26.92;;
60975;SDS011;46849;48.154;17.042;2022-12-17T04:02:19;46.67;;;25.98;;
60975;SDS011;46849;48.154;17.042;2022-12-17T04:05:23;48.45;;;25.95;;
60975;SDS011;46849;48.154;17.042;2022-12-17T04:08:26;48.13;;;26.38;;
60975;SDS011;46849;48.154;17.042;2022-12-17T04:11:29;47.17;;;25.70;;
60975;SDS011;46849;48.154;17.042;2022-12-17T04:14:32;46.03;;;25.67;;
60975;SDS011;46849;48.154;17.042;2022-12-17T04:17:35;46.72;;;26.73;;
60975;SDS011;46849;48.154;17.042;2022-12-17T04:20:40;50.55;;;26.35;;
60975;SDS011;46849;48.154;17.042;2022-12-17T04:23:43;45.97;;;24.95;;
60975;SDS011;46849;48.154;17.042;2022-12-17T04:26:46;45.25;;;25.35;;
60975;SDS011;46849;48.154;17.042;2022-12-17T04:29:49;46.33;;;26.00;;
60975;SDS011;46849;48.154;17.042;2022-12-17T04:32:53;49.33;;;26.67;;
60975;SDS011;46849;48.154;17.042;2022-12-17T04:35:56;45.40;;;26.23;;
60975;SDS011;46849;48.154;17.042;2022-12-17T04:38:59;46.60;;;26.80;;
60975;SDS011;46849;48.154;17.042;2022-12-17T04:42:02;47.15;;;26.45;;
60975;SDS011;46849;48.154;17.042;2022-12-17T04:45:05;47.80;;;26.00;;
60975;SDS011;46849;48.154;17.042;2022-12-17T04:48:08;47.88;;;26.75;;
60975;SDS011;46849;48.154;17.042;2022-12-17T04:51:12;49.67;;;26.75;;
60975;SDS011;46849;48.154;17.042;2022-12-17T04:54:15;46.47;;;26.10;;
60975;SDS011;46849;48.154;17.042;2022-12-17T04:57:18;47.47;;;25.55;;
60975;SDS011;46849;48.154;17.042;2022-12-17T05:00:21;48.55;;;27.23;;
60975;SDS011;46849;48.154;17.042;2022-12-17T05:03:24;47.92;;;26.15;;
60975;SDS011;46849;48.154;17.042;2022-12-17T05:06:27;44.63;;;25.33;;
60975;SDS011;46849;48.154;17.042;2022-12-17T05:09:30;44.15;;;26.00;;
60975;SDS011;46849;48.154;17.042;2022-12-17T05:12:33;47.55;;;25.05;;
60975;SDS011;46849;48.154;17.042;2022-12-17T05:15:36;42.85;;;23.75;;
60975;SDS011;46849;48.154;17.042;2022-12-17T05:18:50;44.38;;;24.40;;
60975;SDS011;46849;48.154;17.042;2022-12-17T05:21:53;43.95;;;25.10;;
60975;SDS011;46849;48.154;17.042;2022-12-17T05:24:56;43.83;;;25.70;;
60975;SDS011;46849;48.154;17.042;2022-12-17T05:27:59;44.97;;;25.48;;
60975;SDS011;46849;48.154;17.042;2022-12-17T05:31:02;48.60;;;25.73;;
60975;SDS011;46849;48.154;17.042;2022-12-17T05:34:05;43.80;;;23.95;;
60975;SDS011;46849;48.154;17.042;2022-12-17T05:37:09;44.25;;;25.40;;
60975;SDS011;46849;48.154;17.042;2022-12-17T05:40:12;42.80;;;25.77;;
60975;SDS011;46849;48.154;17.042;2022-12-17T05:43:15;46.03;;;25.75;;
60975;SDS011;46849;48.154;17.042;2022-12-17T05:46:18;44.58;;;26.60;;
60975;SDS011;46849;48.154;17.042;2022-12-17T05:49:22;45.80;;;25.35;;
60975;SDS011;46849;48.154;17.042;2022-12-17T05:52:25;45.45;;;26.10;;
60975;SDS011;46849;48.154;17.042;2022-12-17T05:55:29;45.00;;;26.17;;
60975;SDS011;46849;48.154;17.042;2022-12-17T05:58:32;45.17;;;25.42;;
60975;SDS011;46849;48.154;17.042;2022-12-17T06:01:35;46.63;;;25.48;;
60975;SDS011;46849;48.154;17.042;2022-12-17T06:04:38;43.03;;;25.88;;
60975;SDS011;46849;48.154;17.042;2022-12-17T06:07:42;45.63;;;24.40;;
60975;SDS011;46849;48.154;17.042;2022-12-17T06:10:45;47.60;;;26.45;;
60975;SDS011;46849;48.154;17.042;2022-12-17T06:13:49;44.10;;;24.73;;
60975;SDS011;46849;48.154;17.042;2022-12-17T06:16:52;44.13;;;25.70;;
60975;SDS011;46849;48.154;17.042;2022-12-17T06:19:55;46.53;;;25.25;;
60975;SDS011;46849;48.154;17.042;2022-12-17T06:23:08;50.22;;;26.50;;
60975;SDS011;46849;48.154;17.042;2022-12-17T06:26:12;44.67;;;24.92;;
60975;SDS011;46849;48.154;17.042;2022-12-17T06:29:15;47.97;;;25.27;;
60975;SDS011;46849;48.154;17.042;2022-12-17T06:32:19;47.58;;;26.08;;
60975;SDS011;46849;48.154;17.042;2022-12-17T06:35:22;49.90;;;27.60;;
60975;SDS011;46849;48.154;17.042;2022-12-17T06:38:25;49.95;;;27.27;;
60975;SDS011;46849;48.154;17.042;2022-12-17T06:41:28;49.75;;;27.13;;
60975;SDS011;46849;48.154;17.042;2022-12-17T06:44:32;46.10;;;25.92;;
60975;SDS011;46849;48.154;17.042;2022-12-17T06:47:35;45.78;;;25.17;;
60975;SDS011;46849;48.154;17.042;2022-12-17T06:50:37;49.53;;;25.92;;
60975;SDS011;46849;48.154;17.042;2022-12-17T06:53:41;44.90;;;24.48;;
60975;SDS011;46849;48.154;17.042;2022-12-17T06:56:44;47.35;;;25.45;;
60975;SDS011;46849;48.154;17.042;2022-12-17T06:59:47;49.83;;;27.33;;
60975;SDS011;46849;48.154;17.042;2022-12-17T07:02:54;48.20;;;26.15;;
60975;SDS011;46849;48.154;17.042;2022-12-17T07:05:58;46.28;;;25.65;;
60975;SDS011;46849;48.154;17.042;2022-12-17T07:09:03;47.08;;;25.67;;
60975;SDS011;46849;48.154;17.042;2022-12-17T07:12:06;44.30;;;25.33;;
60975;SDS011;46849;48.154;17.042;2022-12-17T07:15:09;49.58;;;25.90;;
60975;SDS011;46849;48.154;17.042;2022-12-17T07:18:12;50.88;;;26.25;;
60975;SDS011;46849;48.154;17.042;2022-12-17T07:21:15;46.45;;;25.08;;
60975;SDS011;46849;48.154;17.042;2022-12-17T07:24:18;49.70;;;25.80;;
60975;SDS011;46849;48.154;17.042;2022-12-17T07:27:22;50.10;;;27.20;;
60975;SDS011;46849;48.154;17.042;2022-12-17T07:30:25;49.35;;;25.90;;
60975;SDS011;46849;48.154;17.042;2022-12-17T07:33:28;48.78;;;25.45;;
60975;SDS011;46849;48.154;17.042;2022-12-17T07:36:31;47.03;;;26.25;;
60975;SDS011;46849;48.154;17.042;2022-12-17T07:39:34;50.88;;;26.40;;
60975;SDS011;46849;48.154;17.042;2022-12-17T07:42:38;51.20;;;26.92;;
60975;SDS011;46849;48.154;17.042;2022-12-17T07:45:44;45.78;;;25.23;;
60975;SDS011;46849;48.154;17.042;2022-12-17T07:48:50;47.45;;;25.45;;
60975;SDS011;46849;48.154;17.042;2022-12-17T07:52:02;47.90;;;24.98;;
60975;SDS011;46849;48.154;17.042;2022-12-17T07:55:05;49.17;;;25.13;;
60975;SDS011;46849;48.154;17.042;2022-12-17T07:58:09;47.63;;;24.20;;
60975;SDS011;46849;48.154;17.042;2022-12-17T08:01:13;50.42;;;26.15;;
60975;SDS011;46849;48.154;17.042;2022-12-17T08:04:16;53.13;;;26.08;;
60975;SDS011;46849;48.154;17.042;2022-12-17T08:07:19;49.75;;;25.73;;
60975;SDS011;46849;48.154;17.042;2022-12-17T08:10:22;43.97;;;23.98;;
60975;SDS011;46849;48.154;17.042;2022-12-17T08:13:25;47.63;;;25.27;;
60975;SDS011;46849;48.154;17.042;2022-12-17T08:16:29;52.40;;;27.23;;
60975;SDS011;46849;48.154;17.042;2022-12-17T08:19:32;47.17;;;24.00;;
60975;SDS011;46849;48.154;17.042;2022-12-17T08:22:35;51.92;;;25.38;;
60975;SDS011;46849;48.154;17.042;2022-12-17T08:25:38;43.25;;;23.10;;
60975;SDS011;46849;48.154;17.042;2022-12-17T08:28:42;48.83;;;25.27;;
60975;SDS011;46849;48.154;17.042;2022-12-17T08:31:45;48.10;;;26.25;;
60975;SDS011;46849;48.154;17.042;2022-12-17T08:34:48;54.85;;;27.08;;
60975;SDS011;46849;48.154;17.042;2022-12-17T08:37:51;47.42;;;24.52;;
60975;SDS011;46849;48.154;17.042;2022-12-17T08:40:54;46.28;;;24.45;;
60975;SDS011;46849;48.154;17.042;2022-12-17T08:43:57;45.47;;;24.40;;
60975;SDS011;46849;48.154;17.042;2022-12-17T08:47:00;48.65;;;25.20;;
60975;SDS011;46849;48.154;17.042;2022-12-17T08:50:04;47.88;;;24.95;;
60975;SDS011;46849;48.154;17.042;2022-12-17T08:53:08;46.53;;;25.27;;
60975;SDS011;46849;48.154;17.042;2022-12-17T08:56:11;56.60;;;28.45;;
60975;SDS011;46849;48.154;17.042;2022-12-17T08:59:15;51.42;;;26.10;;
60975;SDS011;46849;48.154;17.042;2022-12-17T09:02:18;45.92;;;24.25;;
60975;SDS011;46849;48.154;17.042;2022-12-17T09:05:20;48.45;;;24.40;;
60975;SDS011;46849;48.154;17.042;2022-12-17T09:08:24;48.53;;;25.75;;
60975;SDS011;46849;48.154;17.042;2022-12-17T09:11:27;45.03;;;24.35;;
60975;SDS011;46849;48.154;17.042;2022-12-17T09:14:30;48.97;;;25.13;;
60975;SDS011;46849;48.154;17.042;2022-12-17T09:17:35;44.83;;;23.90;;
60975;SDS011;46849;48.154;17.042;2022-12-17T09:20:38;47.40;;;24.25;;
60975;SDS011;46849;48.154;17.042;2022-12-17T09:23:42;46.65;;;26.40;;
60975;SDS011;46849;48.154;17.042;2022-12-17T09:26:45;55.30;;;28.50;;
60975;SDS011;46849;48.154;17.042;2022-12-17T09:29:48;51.45;;;28.27;;
60975;SDS011;46849;48.154;17.042;2022-12-17T09:32:51;54.42;;;30.35;;
60975;SDS011;46849;48.154;17.042;2022-12-17T09:35:55;53.05;;;28.40;;
60975;SDS011;46849;48.154;17.042;2022-12-17T09:38:58;52.00;;;28.92;;
60975;SDS011;46849;48.154;17.042;2022-12-17T09:48:34;52.63;;;28.08;;
60975;SDS011;46849;48.154;17.042;2022-12-17T09:51:42;49.72;;;27.80;;
60975;SDS011;46849;48.154;17.042;2022-12-17T09:54:47;52.17;;;27.75;;
60975;SDS011;46849;48.154;17.042;2022-12-17T09:57:53;53.58;;;28.20;;
60975;SDS011;46849;48.154;17.042;2022-12-17T10:00:58;48.92;;;27.08;;
60975;SDS011;46849;48.154;17.042;2022-12-17T10:04:02;47.90;;;26.77;;
60975;SDS011;46849;48.154;17.042;2022-12-17T10:07:13;46.05;;;25.75;;
60975;SDS011;46849;48.154;17.042;2022-12-17T10:10:23;49.28;;;25.77;;
60975;SDS011;46849;48.154;17.042;2022-12-17T10:13:28;50.35;;;25.40;;
60975;SDS011;46849;48.154;17.042;2022-12-17T10:16:32;45.72;;;24.33;;
60975;SDS011;46849;48.154;17.042;2022-12-17T10:19:50;45.92;;;23.55;;
60975;SDS011;46849;48.154;17.042;2022-12-17T10:22:56;41.90;;;23.38;;
60975;SDS011;46849;48.154;17.042;2022-12-17T10:25:59;43.35;;;22.80;;
60975;SDS011;46849;48.154;17.042;2022-12-17T10:29:04;43.28;;;23.77;;
60975;SDS011;46849;48.154;17.042;2022-12-17T10:35:21;41.50;;;23.35;;
60975;SDS011;46849;48.154;17.042;2022-12-17T10:38:27;40.72;;;22.35;;
60975;SDS011;46849;48.154;17.042;2022-12-17T10:41:35;41.75;;;23.02;;
60975;SDS011;46849;48.154;17.042;2022-12-17T10:44:38;45.40;;;24.42;;
60975;SDS011;46849;48.154;17.042;2022-12-17T10:47:42;43.88;;;21.70;;
60975;SDS011;46849;48.154;17.042;2022-12-17T10:50:45;42.90;;;22.02;;
60975;SDS011;46849;48.154;17.042;2022-12-17T10:53:51;39.42;;;21.70;;
60975;SDS011;46849;48.154;17.042;2022-12-17T10:56:55;35.58;;;18.30;;
60975;SDS011;46849;48.154;17.042;2022-12-17T11:00:13;37.47;;;21.52;;
60975;SDS011;46849;48.154;17.042;2022-12-17T11:03:31;41.95;;;20.50;;
60975;SDS011;46849;48.154;17.042;2022-12-17T11:06:39;39.70;;;20.27;;
60975;SDS011;46849;48.154;17.042;2022-12-17T11:09:47;36.47;;;20.13;;
60975;SDS011;46849;48.154;17.042;2022-12-17T11:12:57;34.90;;;20.23;;
60975;SDS011;46849;48.154;17.042;2022-12-17T11:19:17;34.28;;;18.80;;
60975;SDS011;46849;48.154;17.042;2022-12-17T11:22:31;34.30;;;17.95;;
60975;SDS011;46849;48.154;17.042;2022-12-17T11:25:41;33.65;;;17.52;;
60975;SDS011;46849;48.154;17.042;2022-12-17T11:28:52;36.67;;;19.83;;
60975;SDS011;46849;48.154;17.042;2022-12-17T11:32:18;34.42;;;18.50;;
60975;SDS011;46849;48.154;17.042;2022-12-17T11:35:46;35.00;;;19.05;;
60975;SDS011;46849;48.154;17.042;2022-12-17T11:42:08;32.17;;;17.27;;
60975;SDS011;46849;48.154;17.042;2022-12-17T11:45:25;32.50;;;17.50;;
60975;SDS011;46849;48.154;17.042;2022-12-17T11:48:45;33.92;;;18.33;;
60975;SDS011;46849;48.154;17.042;2022-12-17T11:55:18;32.25;;;19.17;;
60975;SDS011;46849;48.154;17.042;2022-12-17T12:02:25;30.55;;;17.33;;
60975;SDS011;46849;48.154;17.042;2022-12-17T12:05:54;32.42;;;17.80;;
60975;SDS011;46849;48.154;17.042;2022-12-17T12:09:07;30.52;;;17.60;;
60975;SDS011;46849;48.154;17.042;2022-12-17T12:16:42;30.55;;;16.17;;
60975;SDS011;46849;48.154;17.042;2022-12-17T12:19:58;31.40;;;16.90;;
60975;SDS011;46849;48.154;17.042;2022-12-17T12:26:16;29.27;;;16.02;;
60975;SDS011;46849;48.154;17.042;2022-12-17T12:29:30;31.67;;;18.65;;
60975;SDS011;46849;48.154;17.042;2022-12-17T12:36:02;32.75;;;17.63;;
60975;SDS011;46849;48.154;17.042;2022-12-17T12:39:09;31.13;;;17.02;;
60975;SDS011;46849;48.154;17.042;2022-12-17T12:45:47;32.03;;;17.00;;
60975;SDS011;46849;48.154;17.042;2022-12-17T12:49:25;33.67;;;19.33;;
60975;SDS011;46849;48.154;17.042;2022-12-17T12:52:33;32.55;;;18.38;;
60975;SDS011;46849;48.154;17.042;2022-12-17T12:55:40;30.92;;;17.40;;
60975;SDS011;46849;48.154;17.042;2022-12-17T12:58:44;32.97;;;18.65;;
60975;SDS011;46849;48.154;17.042;2022-12-17T13:01:47;32.67;;;17.42;;
60975;SDS011;46849;48.154;17.042;2022-12-17T13:04:51;31.63;;;17.20;;
60975;SDS011;46849;48.154;17.042;2022-12-17T13:10:51;31.75;;;17.17;;
60975;SDS011;46849;48.154;17.042;2022-12-17T13:13:40;35.08;;;18.92;;
60975;SDS011;46849;48.154;17.042;2022-12-17T13:20:20;36.80;;;20.73;;
60975;SDS011;46849;48.154;17.042;2022-12-17T13:29:21;26.52;;;15.05;;
60975;SDS011;46849;48.154;17.042;2022-12-17T13:41:34;26.48;;;14.70;;
60975;SDS011;46849;48.154;17.042;2022-12-17T13:44:25;25.92;;;13.82;;
60975;SDS011;46849;48.154;17.042;2022-12-17T13:47:18;24.38;;;14.18;;
60975;SDS011;46849;48.154;17.042;2022-12-17T13:50:27;27.25;;;13.93;;
60975;SDS011;46849;48.154;17.042;2022-12-17T13:53:13;25.70;;;13.30;;
60975;SDS011;46849;48.154;17.042;2022-12-17T13:55:58;24.20;;;13.10;;
60975;SDS011;46849;48.154;17.042;2022-12-17T13:58:43;23.35;;;13.25;;
60975;SDS011;46849;48.154;17.042;2022-12-17T14:01:28;23.77;;;13.35;;
60975;SDS011;46849;48.154;17.042;2022-12-17T14:04:20;24.40;;;12.40;;
60975;SDS011;46849;48.154;17.042;2022-12-17T14:07:10;23.33;;;13.02;;
60975;SDS011;46849;48.154;17.042;2022-12-17T14:09:55;24.30;;;12.43;;
60975;SDS011;46849;48.154;17.042;2022-12-17T14:12:40;20.17;;;11.88;;
60975;SDS011;46849;48.154;17.042;2022-12-17T14:15:25;21.58;;;12.38;;
60975;SDS011;46849;48.154;17.042;2022-12-17T14:18:14;20.35;;;11.98;;
60975;SDS011;46849;48.154;17.042;2022-12-17T14:21:01;22.13;;;12.07;;
60975;SDS011;46849;48.154;17.042;2022-12-17T14:23:46;22.20;;;12.77;;
60975;SDS011;46849;48.154;17.042;2022-12-17T14:26:32;24.42;;;12.88;;
60975;SDS011;46849;48.154;17.042;2022-12-17T14:29:21;24.27;;;12.63;;
60975;SDS011;46849;48.154;17.042;2022-12-17T14:32:20;22.40;;;11.90;;
60975;SDS011;46849;48.154;17.042;2022-12-17T14:35:35;19.05;;;11.00;;
60975;SDS011;46849;48.154;17.042;2022-12-17T14:38:23;23.92;;;12.02;;
60975;SDS011;46849;48.154;17.042;2022-12-17T14:41:09;21.77;;;11.48;;
60975;SDS011;46849;48.154;17.042;2022-12-17T14:44:21;20.20;;;10.73;;
60975;SDS011;46849;48.154;17.042;2022-12-17T14:47:20;20.83;;;12.30;;
60975;SDS011;46849;48.154;17.042;2022-12-17T14:53:24;23.83;;;12.50;;
60975;SDS011;46849;48.154;17.042;2022-12-17T14:56:19;20.40;;;11.43;;
60975;SDS011;46849;48.154;17.042;2022-12-17T15:05:08;20.25;;;11.75;;
60975;SDS011;46849;48.154;17.042;2022-12-17T15:07:57;23.10;;;12.18;;
60975;SDS011;46849;48.154;17.042;2022-12-17T15:10:42;24.92;;;12.30;;
60975;SDS011;46849;48.154;17.042;2022-12-17T15:13:27;20.52;;;11.57;;
60975;SDS011;46849;48.154;17.042;2022-12-17T15:16:11;20.40;;;10.43;;
60975;SDS011;46849;48.154;17.042;2022-12-17T15:18:56;18.02;;;10.57;;
60975;SDS011;46849;48.154;17.042;2022-12-17T15:21:42;19.98;;;11.18;;
60975;SDS011;46849;48.154;17.042;2022-12-17T15:24:26;22.15;;;11.80;;
60975;SDS011;46849;48.154;17.042;2022-12-17T15:27:13;21.38;;;11.27;;
60975;SDS011;46849;48.154;17.042;2022-12-17T15:29:58;21.58;;;11.85;;
60975;SDS011;46849;48.154;17.042;2022-12-17T15:32:43;20.60;;;11.43;;
60975;SDS011;46849;48.154;17.042;2022-12-17T15:35:29;22.38;;;11.75;;
60975;SDS011;46849;48.154;17.042;2022-12-17T15:38:13;24.02;;;11.98;;
60975;SDS011;46849;48.154;17.042;2022-12-17T15:41:00;21.27;;;11.15;;
60975;SDS011;46849;48.154;17.042;2022-12-17T15:44:06;20.85;;;11.60;;
60975;SDS011;46849;48.154;17.042;2022-12-17T15:46:51;21.73;;;12.13;;
60975;SDS011;46849;48.154;17.042;2022-12-17T15:49:36;21.35;;;12.77;;
60975;SDS011;46849;48.154;17.042;2022-12-17T15:52:20;26.08;;;13.40;;
60975;SDS011;46849;48.154;17.042;2022-12-17T15:55:08;22.85;;;14.20;;
60975;SDS011;46849;48.154;17.042;2022-12-17T15:57:53;24.60;;;13.23;;
60975;SDS011;46849;48.154;17.042;2022-12-17T16:00:38;24.67;;;14.07;;
60975;SDS011;46849;48.154;17.042;2022-12-17T16:03:23;22.58;;;12.73;;
60975;SDS011;46849;48.154;17.042;2022-12-17T16:06:07;22.05;;;12.35;;
60975;SDS011;46849;48.154;17.042;2022-12-17T16:08:52;23.55;;;12.85;;
60975;SDS011;46849;48.154;17.042;2022-12-17T16:11:37;21.85;;;11.57;;
60975;SDS011;46849;48.154;17.042;2022-12-17T16:14:22;21.25;;;11.63;;
60975;SDS011;46849;48.154;17.042;2022-12-17T16:17:08;21.85;;;11.98;;
60975;SDS011;46849;48.154;17.042;2022-12-17T16:19:53;21.38;;;12.02;;
60975;SDS011;46849;48.154;17.042;2022-12-17T16:22:38;20.90;;;10.57;;
60975;SDS011;46849;48.154;17.042;2022-12-17T16:25:22;22.35;;;12.63;;
60975;SDS011;46849;48.154;17.042;2022-12-17T16:28:07;22.73;;;13.77;;
60975;SDS011;46849;48.154;17.042;2022-12-17T16:31:03;20.42;;;11.85;;
60975;SDS011;46849;48.154;17.042;2022-12-17T16:33:50;20.42;;;11.52;;
60975;SDS011;46849;48.154;17.042;2022-12-17T16:36:35;21.05;;;12.18;;
60975;SDS011;46849;48.154;17.042;2022-12-17T16:39:20;20.42;;;11.88;;
60975;SDS011;46849;48.154;17.042;2022-12-17T16:42:04;19.65;;;11.68;;
60975;SDS011;46849;48.154;17.042;2022-12-17T16:44:49;22.10;;;12.77;;
60975;SDS011;46849;48.154;17.042;2022-12-17T16:47:34;25.10;;;13.02;;
60975;SDS011;46849;48.154;17.042;2022-12-17T16:50:19;23.33;;;12.50;;
60975;SDS011;46849;48.154;17.042;2022-12-17T16:53:03;19.00;;;11.85;;
60975;SDS011;46849;48.154;17.042;2022-12-17T16:55:48;22.13;;;12.38;;
60975;SDS011;46849;48.154;17.042;2022-12-17T16:58:33;22.98;;;12.25;;
60975;SDS011;46849;48.154;17.042;2022-12-17T17:01:22;20.20;;;12.80;;
60975;SDS011;46849;48.154;17.042;2022-12-17T17:04:11;20.77;;;12.60;;
60975;SDS011;46849;48.154;17.042;2022-12-17T17:06:56;21.02;;;11.50;;
60975;SDS011;46849;48.154;17.042;2022-12-17T17:09:41;19.98;;;11.57;;
60975;SDS011;46849;48.154;17.042;2022-12-17T17:12:26;20.13;;;12.25;;
60975;SDS011;46849;48.154;17.042;2022-12-17T17:15:10;20.13;;;11.60;;
60975;SDS011;46849;48.154;17.042;2022-12-17T17:17:55;20.95;;;11.90;;
60975;SDS011;46849;48.154;17.042;2022-12-17T17:20:39;19.30;;;11.57;;
60975;SDS011;46849;48.154;17.042;2022-12-17T17:23:24;20.90;;;11.85;;
60975;SDS011;46849;48.154;17.042;2022-12-17T17:26:09;18.48;;;10.93;;
60975;SDS011;46849;48.154;17.042;2022-12-17T17:28:59;20.15;;;12.18;;
60975;SDS011;46849;48.154;17.042;2022-12-17T17:31:44;20.10;;;10.55;;
60975;SDS011;46849;48.154;17.042;2022-12-17T17:34:29;19.33;;;11.88;;
60975;SDS011;46849;48.154;17.042;2022-12-17T17:37:13;21.13;;;11.80;;
60975;SDS011;46849;48.154;17.042;2022-12-17T17:39:58;21.80;;;12.05;;
60975;SDS011;46849;48.154;17.042;2022-12-17T17:42:42;18.67;;;11.18;;
60975;SDS011;46849;48.154;17.042;2022-12-17T17:45:28;20.98;;;11.90;;
60975;SDS011;46849;48.154;17.042;2022-12-17T17:48:12;19.42;;;11.38;;
60975;SDS011;46849;48.154;17.042;2022-12-17T17:51:00;19.38;;;11.23;;
60975;SDS011;46849;48.154;17.042;2022-12-17T17:53:47;20.45;;;11.38;;
60975;SDS011;46849;48.154;17.042;2022-12-17T17:56:35;21.52;;;12.20;;
60975;SDS011;46849;48.154;17.042;2022-12-17T17:59:22;20.42;;;12.85;;
60975;SDS011;46849;48.154;17.042;2022-12-17T18:02:10;23.55;;;12.77;;
60975;SDS011;46849;48.154;17.042;2022-12-17T18:04:57;21.15;;;12.32;;
60975;SDS011;46849;48.154;17.042;2022-12-17T18:07:44;21.85;;;12.85;;
60975;SDS011;46849;48.154;17.042;2022-12-17T18:10:29;21.63;;;12.35;;
60975;SDS011;46849;48.154;17.042;2022-12-17T18:13:14;26.13;;;13.80;;
60975;SDS011;46849;48.154;17.042;2022-12-17T18:16:17;22.02;;;12.80;;
60975;SDS011;46849;48.154;17.042;2022-12-17T18:19:04;23.13;;;13.38;;
60975;SDS011;46849;48.154;17.042;2022-12-17T18:21:59;26.25;;;14.10;;
60975;SDS011;46849;48.154;17.042;2022-12-17T18:24:44;23.35;;;14.25;;
60975;SDS011;46849;48.154;17.042;2022-12-17T18:27:28;22.42;;;12.77;;
60975;SDS011;46849;48.154;17.042;2022-12-17T18:30:13;25.60;;;14.18;;
60975;SDS011;46849;48.154;17.042;2022-12-17T18:32:59;24.40;;;13.90;;
60975;SDS011;46849;48.154;17.042;2022-12-17T18:35:44;23.95;;;13.88;;
60975;SDS011;46849;48.154;17.042;2022-12-17T18:38:28;23.98;;;13.10;;